createdAt,value
2023-01-21T00:00:01.761Z,20.30
2023-01-21T00:00:14.248Z,20.65
2023-01-21T00:00:26.377Z,19.92
2023-01-21T00:00:38.547Z,19.48
2023-01-21T00:00:50.497Z,20.42
2023-01-21T00:01:02.476Z,21.40
2023-01-21T00:01:16.897Z,20.45
2023-01-21T00:01:28.910Z,20.25
2023-01-21T00:01:40.877Z,20.92
2023-01-21T00:01:52.860Z,22.00
2023-01-21T00:02:05.459Z,21.75
2023-01-21T00:02:17.490Z,20.67
2023-01-21T00:02:29.496Z,20.65
2023-01-21T00:02:41.605Z,20.70
2023-01-21T00:02:53.616Z,21.48
2023-01-21T00:03:05.670Z,21.05
2023-01-21T00:03:17.705Z,20.60
2023-01-21T00:03:29.739Z,19.58
2023-01-21T00:03:41.993Z,20.63
2023-01-21T00:03:54.001Z,21.27
2023-01-21T00:04:05.962Z,20.27
2023-01-21T00:04:17.966Z,21.60
2023-01-21T00:04:30.031Z,21.80
2023-01-21T00:04:42.169Z,22.00
2023-01-21T00:04:54.104Z,21.25
2023-01-21T00:05:06.377Z,20.77
2023-01-21T00:05:18.321Z,20.52
2023-01-21T00:05:30.261Z,20.75
2023-01-21T00:05:42.207Z,20.52
2023-01-21T00:05:54.282Z,20.20
2023-01-21T00:06:06.848Z,20.58
2023-01-21T00:06:18.834Z,20.52
2023-01-21T00:06:30.745Z,19.95
2023-01-21T00:06:42.761Z,19.63
2023-01-21T00:06:54.682Z,19.23
2023-01-21T00:07:07.698Z,19.80
2023-01-21T00:07:19.672Z,20.98
2023-01-21T00:07:31.603Z,20.98
2023-01-21T00:07:43.555Z,20.48
2023-01-21T00:07:55.517Z,20.65
2023-01-21T00:08:07.455Z,21.55
2023-01-21T00:08:19.474Z,20.88
2023-01-21T00:08:31.405Z,21.38
2023-01-21T00:08:43.611Z,19.73
2023-01-21T00:08:59.241Z,18.73
2023-01-21T00:09:11.546Z,19.98
2023-01-21T00:09:23.535Z,20.20
2023-01-21T00:09:35.518Z,18.83
2023-01-21T00:09:47.466Z,18.30
2023-01-21T00:09:59.375Z,18.60
2023-01-21T00:10:11.353Z,18.85
2023-01-21T00:10:23.455Z,18.42
2023-01-21T00:10:35.433Z,18.40
2023-01-21T00:10:47.398Z,19.58
2023-01-21T00:11:10.556Z,19.30
2023-01-21T00:11:22.543Z,19.63
2023-01-21T00:11:34.578Z,19.75
2023-01-21T00:11:49.298Z,19.52
2023-01-21T00:12:04.112Z,19.55
2023-01-21T00:12:16.074Z,19.65
2023-01-21T00:12:28.020Z,18.87
2023-01-21T00:12:39.968Z,18.63
2023-01-21T00:12:51.981Z,18.23
2023-01-21T00:13:03.968Z,18.13
2023-01-21T00:13:16.501Z,18.02
2023-01-21T00:13:28.434Z,18.35
2023-01-21T00:13:41.472Z,19.02
2023-01-21T00:13:53.465Z,19.92
2023-01-21T00:14:05.436Z,19.70
2023-01-21T00:14:17.483Z,20.05
2023-01-21T00:14:30.155Z,19.55
2023-01-21T00:14:42.078Z,18.40
2023-01-21T00:14:54.033Z,18.98
2023-01-21T00:15:06.465Z,19.50
2023-01-21T00:15:18.448Z,19.08
2023-01-21T00:15:30.430Z,19.10
2023-01-21T00:15:42.818Z,20.30
2023-01-21T00:15:55.053Z,21.10
2023-01-21T00:16:07.804Z,20.45
2023-01-21T00:16:19.893Z,21.13
2023-01-21T00:16:31.839Z,21.27
2023-01-21T00:16:43.765Z,20.48
2023-01-21T00:16:55.980Z,17.55
2023-01-21T00:17:07.968Z,17.95
2023-01-21T00:17:19.883Z,18.40
2023-01-21T00:17:37.961Z,18.42
2023-01-21T00:17:52.814Z,18.02
2023-01-21T00:18:04.818Z,19.23
2023-01-21T00:18:16.755Z,18.45
2023-01-21T00:18:30.107Z,18.02
2023-01-21T00:18:42.580Z,17.75
2023-01-21T00:18:56.502Z,18.75
2023-01-21T00:19:08.486Z,20.10
2023-01-21T00:19:20.568Z,18.95
2023-01-21T00:19:32.543Z,19.27
2023-01-21T00:19:44.507Z,18.88
2023-01-21T00:19:56.475Z,17.17
2023-01-21T00:20:09.173Z,16.50
2023-01-21T00:20:21.415Z,17.42
2023-01-21T00:20:33.544Z,17.98
2023-01-21T00:20:45.987Z,19.65
2023-01-21T00:20:57.920Z,20.90
2023-01-21T00:21:10.147Z,20.52
2023-01-21T00:21:22.589Z,18.92
2023-01-21T00:21:34.495Z,19.35
2023-01-21T00:21:46.592Z,20.15
2023-01-21T00:21:58.562Z,20.13
2023-01-21T00:22:10.609Z,19.00
2023-01-21T00:22:22.549Z,17.70
2023-01-21T00:22:34.514Z,19.08
2023-01-21T00:22:46.425Z,19.63
2023-01-21T00:22:58.541Z,20.63
2023-01-21T00:23:10.882Z,19.83
2023-01-21T00:23:22.988Z,19.90
2023-01-21T00:23:35.040Z,19.38
2023-01-21T00:23:47.025Z,19.63
2023-01-21T00:23:59.055Z,18.55
2023-01-21T00:24:11.061Z,18.90
2023-01-21T00:24:24.377Z,19.80
2023-01-21T00:24:36.308Z,19.08
2023-01-21T00:24:48.208Z,18.45
2023-01-21T00:25:00.153Z,18.50
2023-01-21T00:25:12.135Z,17.20
2023-01-21T00:25:24.063Z,16.25
2023-01-21T00:25:35.956Z,15.73
2023-01-21T00:25:47.936Z,17.58
2023-01-21T00:26:01.824Z,18.42
2023-01-21T00:26:13.856Z,17.92
2023-01-21T00:26:25.932Z,19.00
2023-01-21T00:26:37.962Z,20.48
2023-01-21T00:26:49.889Z,20.50
2023-01-21T00:27:01.783Z,19.85
2023-01-21T00:27:13.717Z,17.58
2023-01-21T00:27:25.710Z,16.95
2023-01-21T00:27:37.747Z,17.25
2023-01-21T00:27:49.735Z,18.13
2023-01-21T00:28:01.675Z,18.70
2023-01-21T00:28:13.586Z,18.52
2023-01-21T00:28:28.603Z,17.58
2023-01-21T00:28:44.222Z,17.55
2023-01-21T00:28:56.182Z,17.95
2023-01-21T00:29:08.255Z,17.80
2023-01-21T00:29:21.488Z,18.17
2023-01-21T00:29:33.451Z,17.23
2023-01-21T00:29:45.394Z,16.35
2023-01-21T00:29:57.360Z,15.60
2023-01-21T00:30:10.766Z,16.63
2023-01-21T00:30:22.742Z,18.10
2023-01-21T00:30:35.613Z,19.08
2023-01-21T00:30:47.698Z,18.77
2023-01-21T00:31:01.851Z,18.35
2023-01-21T00:31:14.007Z,18.15
2023-01-21T00:31:26.353Z,17.27
2023-01-21T00:31:38.972Z,16.55
2023-01-21T00:31:51.052Z,19.05
2023-01-21T00:32:03.013Z,21.02
2023-01-21T00:32:15.152Z,20.80
2023-01-21T00:32:27.080Z,17.23
2023-01-21T00:32:39.039Z,17.52
2023-01-21T00:32:52.316Z,19.65
2023-01-21T00:33:04.569Z,19.50
2023-01-21T00:33:16.506Z,18.85
2023-01-21T00:33:29.229Z,18.33
2023-01-21T00:33:41.190Z,19.88
2023-01-21T00:33:53.276Z,19.13
2023-01-21T00:34:05.340Z,19.10
2023-01-21T00:34:17.381Z,18.63
2023-01-21T00:34:29.388Z,19.70
2023-01-21T00:34:42.036Z,20.23
2023-01-21T00:34:54.165Z,21.67
2023-01-21T00:35:07.469Z,20.77
2023-01-21T00:35:19.473Z,19.63
2023-01-21T00:35:31.488Z,17.63
2023-01-21T00:35:43.506Z,17.15
2023-01-21T00:36:05.042Z,18.13
2023-01-21T00:36:18.533Z,19.10
2023-01-21T00:36:30.810Z,18.35
2023-01-21T00:36:42.867Z,19.20
2023-01-21T00:36:56.536Z,20.10
2023-01-21T00:37:08.609Z,19.92
2023-01-21T00:37:20.573Z,19.02
2023-01-21T00:37:32.627Z,19.55
2023-01-21T00:37:44.570Z,19.42
2023-01-21T00:37:56.562Z,20.63
2023-01-21T00:38:08.488Z,19.58
2023-01-21T00:38:20.395Z,18.23
2023-01-21T00:38:32.606Z,18.02
2023-01-21T00:38:48.091Z,18.67
2023-01-21T00:39:00.129Z,20.38
2023-01-21T00:39:12.236Z,19.48
2023-01-21T00:39:24.209Z,18.98
2023-01-21T00:39:36.138Z,18.33
2023-01-21T00:39:48.119Z,18.88
2023-01-21T00:40:00.165Z,19.38
2023-01-21T00:40:12.718Z,19.33
2023-01-21T00:40:24.798Z,20.65
2023-01-21T00:40:36.774Z,19.58
2023-01-21T00:40:49.078Z,19.48
2023-01-21T00:41:02.970Z,18.38
2023-01-21T00:41:15.049Z,18.17
2023-01-21T00:41:27.176Z,18.75
2023-01-21T00:41:39.269Z,20.10
2023-01-21T00:41:51.195Z,19.73
2023-01-21T00:42:04.450Z,19.45
2023-01-21T00:42:16.420Z,17.98
2023-01-21T00:42:28.652Z,18.42
2023-01-21T00:42:40.637Z,18.27
2023-01-21T00:42:52.549Z,18.73
2023-01-21T00:43:04.636Z,18.85
2023-01-21T00:43:16.539Z,20.55
2023-01-21T00:43:28.556Z,21.40
2023-01-21T00:43:41.999Z,21.45
2023-01-21T00:43:53.984Z,21.63
2023-01-21T00:44:06.005Z,19.90
2023-01-21T00:44:19.201Z,18.92
2023-01-21T00:44:31.120Z,19.80
2023-01-21T00:44:43.079Z,20.30
2023-01-21T00:44:57.508Z,20.05
2023-01-21T00:45:09.933Z,18.77
2023-01-21T00:45:21.912Z,18.25
2023-01-21T00:45:33.934Z,19.15
2023-01-21T00:45:45.937Z,18.90
2023-01-21T00:45:58.221Z,18.23
2023-01-21T00:46:11.126Z,18.42
2023-01-21T00:46:23.344Z,18.88
2023-01-21T00:46:35.399Z,18.48
2023-01-21T00:46:47.403Z,18.58
2023-01-21T00:46:59.360Z,20.42
2023-01-21T00:47:11.305Z,22.02
2023-01-21T00:47:24.354Z,22.00
2023-01-21T00:47:36.300Z,20.92
2023-01-21T00:47:48.501Z,21.17
2023-01-21T00:48:00.416Z,21.00
2023-01-21T00:48:12.322Z,19.95
2023-01-21T00:48:25.015Z,19.40
2023-01-21T00:48:37.649Z,19.30
2023-01-21T00:48:49.597Z,19.08
2023-01-21T00:49:01.662Z,19.83
2023-01-21T00:49:13.634Z,20.95
2023-01-21T00:49:25.591Z,22.05
2023-01-21T00:49:37.552Z,21.98
2023-01-21T00:49:49.484Z,18.75
2023-01-21T00:50:01.427Z,20.52
2023-01-21T00:50:13.389Z,20.60
2023-01-21T00:50:25.386Z,21.20
2023-01-21T00:50:37.322Z,19.88
2023-01-21T00:50:51.424Z,20.17
2023-01-21T00:51:03.915Z,20.73
2023-01-21T00:51:15.892Z,20.20
2023-01-21T00:51:27.972Z,19.23
2023-01-21T00:51:42.802Z,19.25
2023-01-21T00:51:54.753Z,19.10
2023-01-21T00:52:06.890Z,19.50
2023-01-21T00:52:18.884Z,18.50
2023-01-21T00:52:30.816Z,17.20
2023-01-21T00:52:42.787Z,17.98
2023-01-21T00:52:55.051Z,18.92
2023-01-21T00:53:06.948Z,18.67
2023-01-21T00:53:18.969Z,18.40
2023-01-21T00:53:33.629Z,20.23
2023-01-21T00:53:45.542Z,20.30
2023-01-21T00:53:57.498Z,19.80
2023-01-21T00:54:09.469Z,18.30
2023-01-21T00:54:21.372Z,18.85
2023-01-21T00:54:33.314Z,18.60
2023-01-21T00:54:45.344Z,19.70
2023-01-21T00:54:57.373Z,19.65
2023-01-21T00:55:09.532Z,19.33
2023-01-21T00:55:21.549Z,20.27
2023-01-21T00:55:33.589Z,19.85
2023-01-21T00:55:45.616Z,18.75
2023-01-21T00:56:06.044Z,18.23
2023-01-21T00:56:18.119Z,18.02
2023-01-21T00:56:30.109Z,20.13
2023-01-21T00:56:42.171Z,20.58
2023-01-21T00:56:54.319Z,19.20
2023-01-21T00:57:06.859Z,18.58
2023-01-21T00:57:19.000Z,18.67
2023-01-21T00:57:30.996Z,19.98
2023-01-21T00:57:42.954Z,20.50
2023-01-21T00:57:56.114Z,19.42
2023-01-21T00:58:08.167Z,18.42
2023-01-21T00:58:20.233Z,19.08
2023-01-21T00:58:32.833Z,18.40
2023-01-21T00:58:44.990Z,17.48
2023-01-21T00:58:57.122Z,18.98
2023-01-21T00:59:09.315Z,19.45
2023-01-21T00:59:21.261Z,20.10
2023-01-21T00:59:33.353Z,20.70
2023-01-21T00:59:45.289Z,20.67
2023-01-21T00:59:57.279Z,20.15
2023-01-21T01:00:12.975Z,19.42
2023-01-21T01:00:24.927Z,18.13
2023-01-21T01:00:36.851Z,19.02
2023-01-21T01:00:48.741Z,18.38
2023-01-21T01:01:05.966Z,18.50
2023-01-21T01:01:20.288Z,17.13
2023-01-21T01:01:37.331Z,19.48
2023-01-21T01:01:49.515Z,19.80
2023-01-21T01:02:01.492Z,20.33
2023-01-21T01:02:13.658Z,22.15
2023-01-21T01:02:25.648Z,20.80
2023-01-21T01:02:37.696Z,20.92
2023-01-21T01:02:49.826Z,19.10
2023-01-21T01:03:01.973Z,17.63
2023-01-21T01:03:14.032Z,18.90
2023-01-21T01:03:25.987Z,21.02
2023-01-21T01:03:39.466Z,20.85
2023-01-21T01:03:51.425Z,19.45
2023-01-21T01:04:03.455Z,19.33
2023-01-21T01:04:15.396Z,19.30
2023-01-21T01:04:27.377Z,20.05
2023-01-21T01:04:39.747Z,19.73
2023-01-21T01:04:51.727Z,18.92
2023-01-21T01:05:05.835Z,17.30
2023-01-21T01:05:19.364Z,18.67
2023-01-21T01:05:31.516Z,18.67
2023-01-21T01:05:43.467Z,17.25
2023-01-21T01:05:55.385Z,16.08
2023-01-21T01:06:09.871Z,17.70
2023-01-21T01:06:24.101Z,20.15
2023-01-21T01:06:36.031Z,19.42
2023-01-21T01:06:47.917Z,19.40
2023-01-21T01:06:59.821Z,19.02
2023-01-21T01:07:12.282Z,17.52
2023-01-21T01:07:24.324Z,17.48
2023-01-21T01:07:36.283Z,17.83
2023-01-21T01:07:50.152Z,18.60
2023-01-21T01:08:02.136Z,19.60
2023-01-21T01:08:14.103Z,19.02
2023-01-21T01:08:26.029Z,17.15
2023-01-21T01:08:38.139Z,17.92
2023-01-21T01:08:51.008Z,20.10
2023-01-21T01:09:03.591Z,19.05
2023-01-21T01:09:15.657Z,17.70
2023-01-21T01:09:27.691Z,16.90
2023-01-21T01:09:39.605Z,19.55
2023-01-21T01:09:51.673Z,20.63
2023-01-21T01:10:03.849Z,20.63
2023-01-21T01:10:19.691Z,19.90
2023-01-21T01:10:31.648Z,19.73
2023-01-21T01:10:43.582Z,20.08
2023-01-21T01:10:55.564Z,20.85
2023-01-21T01:11:07.634Z,20.67
2023-01-21T01:11:21.574Z,19.50
2023-01-21T01:11:36.463Z,20.48
2023-01-21T01:11:48.568Z,20.77
2023-01-21T01:12:00.527Z,20.20
2023-01-21T01:12:12.446Z,18.13
2023-01-21T01:12:24.468Z,18.02
2023-01-21T01:12:36.377Z,18.42
2023-01-21T01:12:48.315Z,17.83
2023-01-21T01:13:01.075Z,18.48
2023-01-21T01:13:13.058Z,18.50
2023-01-21T01:13:25.187Z,18.23
2023-01-21T01:13:37.416Z,18.98
2023-01-21T01:13:49.393Z,19.63
2023-01-21T01:14:01.353Z,20.48
2023-01-21T01:14:13.319Z,21.00
2023-01-21T01:14:25.527Z,22.77
2023-01-21T01:14:37.492Z,21.58
2023-01-21T01:14:49.435Z,19.90
2023-01-21T01:15:01.418Z,19.83
2023-01-21T01:15:13.414Z,21.77
2023-01-21T01:15:25.339Z,21.83
2023-01-21T01:15:37.321Z,20.65
2023-01-21T01:15:52.204Z,18.83
2023-01-21T01:16:05.125Z,19.33
2023-01-21T01:16:17.192Z,19.63
2023-01-21T01:16:29.158Z,21.45
2023-01-21T01:16:41.061Z,19.90
2023-01-21T01:16:52.974Z,19.13
2023-01-21T01:17:04.989Z,19.02
2023-01-21T01:17:16.997Z,19.42
2023-01-21T01:17:28.920Z,18.55
2023-01-21T01:17:40.853Z,19.02
2023-01-21T01:17:52.797Z,19.45
2023-01-21T01:18:04.764Z,20.55
2023-01-21T01:18:16.670Z,19.90
2023-01-21T01:18:30.739Z,19.67
2023-01-21T01:18:43.573Z,21.17
2023-01-21T01:18:55.648Z,21.40
2023-01-21T01:19:07.542Z,21.52
2023-01-21T01:19:19.478Z,20.00
2023-01-21T01:19:31.421Z,20.27
2023-01-21T01:19:43.395Z,22.77
2023-01-21T01:19:55.790Z,23.75
2023-01-21T01:20:09.007Z,21.17
2023-01-21T01:20:20.990Z,20.05
2023-01-21T01:20:32.929Z,19.73
2023-01-21T01:20:45.231Z,19.88
2023-01-21T01:20:57.220Z,18.27
2023-01-21T01:21:13.570Z,17.48
2023-01-21T01:21:25.859Z,18.77
2023-01-21T01:21:37.855Z,20.60
2023-01-21T01:21:49.777Z,20.80
2023-01-21T01:22:01.718Z,21.33
2023-01-21T01:22:13.674Z,20.50
2023-01-21T01:22:25.631Z,20.70
2023-01-21T01:22:37.672Z,21.95
2023-01-21T01:22:49.566Z,23.85
2023-01-21T01:23:01.534Z,23.73
2023-01-21T01:23:13.447Z,21.65
2023-01-21T01:23:25.670Z,20.38
2023-01-21T01:23:37.651Z,20.27
2023-01-21T01:23:52.354Z,19.77
2023-01-21T01:24:06.119Z,20.73
2023-01-21T01:24:18.152Z,22.05
2023-01-21T01:24:31.112Z,22.92
2023-01-21T01:24:43.065Z,22.20
2023-01-21T01:24:55.098Z,21.33
2023-01-21T01:25:07.353Z,21.23
2023-01-21T01:25:19.312Z,20.45
2023-01-21T01:25:31.255Z,19.48
2023-01-21T01:25:43.460Z,19.95
2023-01-21T01:26:00.414Z,20.20
2023-01-21T01:26:16.043Z,22.13
2023-01-21T01:26:28.153Z,21.60
2023-01-21T01:26:42.201Z,21.02
2023-01-21T01:26:54.357Z,22.75
2023-01-21T01:27:06.307Z,21.45
2023-01-21T01:27:18.277Z,19.15
2023-01-21T01:27:30.935Z,17.85
2023-01-21T01:27:42.868Z,17.75
2023-01-21T01:27:54.829Z,19.73
2023-01-21T01:28:06.819Z,21.00
2023-01-21T01:28:18.800Z,21.58
2023-01-21T01:28:31.932Z,21.75
2023-01-21T01:28:44.109Z,22.27
2023-01-21T01:28:56.091Z,22.80
2023-01-21T01:29:12.345Z,21.70
2023-01-21T01:29:24.304Z,20.73
2023-01-21T01:29:36.234Z,20.45
2023-01-21T01:29:48.566Z,21.10
2023-01-21T01:30:00.506Z,21.92
2023-01-21T01:30:12.788Z,21.63
2023-01-21T01:30:24.778Z,21.08
2023-01-21T01:30:36.855Z,20.42
2023-01-21T01:30:48.972Z,21.05
2023-01-21T01:31:03.958Z,21.50
2023-01-21T01:31:18.587Z,22.92
2023-01-21T01:31:33.488Z,22.88
2023-01-21T01:31:45.516Z,23.75
2023-01-21T01:31:57.520Z,22.77
2023-01-21T01:32:10.032Z,21.10
2023-01-21T01:32:21.950Z,22.15
2023-01-21T01:32:34.460Z,23.52
2023-01-21T01:32:46.394Z,22.65
2023-01-21T01:32:58.395Z,22.35
2023-01-21T01:33:10.363Z,22.13
2023-01-21T01:33:22.973Z,22.83
2023-01-21T01:33:35.224Z,22.25
2023-01-21T01:33:47.633Z,22.10
2023-01-21T01:33:59.660Z,22.58
2023-01-21T01:34:11.573Z,22.90
2023-01-21T01:34:23.576Z,22.33
2023-01-21T01:34:36.916Z,21.08
2023-01-21T01:34:48.830Z,20.90
2023-01-21T01:35:00.802Z,21.52
2023-01-21T01:35:12.772Z,22.67
2023-01-21T01:35:24.698Z,22.10
2023-01-21T01:35:38.700Z,22.67
2023-01-21T01:35:50.869Z,21.10
2023-01-21T01:36:12.523Z,20.55
2023-01-21T01:36:24.884Z,20.50
2023-01-21T01:36:39.767Z,20.60
2023-01-21T01:36:51.764Z,20.15
2023-01-21T01:37:04.058Z,19.75
2023-01-21T01:37:18.355Z,22.23
2023-01-21T01:37:30.269Z,23.42
2023-01-21T01:37:42.266Z,22.15
2023-01-21T01:37:54.370Z,21.80
2023-01-21T01:38:08.779Z,23.42
2023-01-21T01:38:25.395Z,23.17
2023-01-21T01:38:37.370Z,23.33
2023-01-21T01:38:50.217Z,23.52
2023-01-21T01:39:02.142Z,21.67
2023-01-21T01:39:14.068Z,20.38
2023-01-21T01:39:25.982Z,19.45
2023-01-21T01:39:37.913Z,19.70
2023-01-21T01:39:49.852Z,21.25
2023-01-21T01:40:01.950Z,22.15
2023-01-21T01:40:14.513Z,21.88
2023-01-21T01:40:26.727Z,21.13
2023-01-21T01:40:40.518Z,21.52
2023-01-21T01:40:53.096Z,21.50
2023-01-21T01:41:05.460Z,22.45
2023-01-21T01:41:22.869Z,22.83
2023-01-21T01:41:35.329Z,21.27
2023-01-21T01:41:47.303Z,20.02
2023-01-21T01:41:59.258Z,21.60
2023-01-21T01:42:15.663Z,22.02
2023-01-21T01:42:27.772Z,21.15
2023-01-21T01:42:40.080Z,22.05
2023-01-21T01:42:51.998Z,20.88
2023-01-21T01:43:12.936Z,20.90
2023-01-21T01:43:28.272Z,21.77
2023-01-21T01:44:18.983Z,21.95
2023-01-21T01:44:58.408Z,23.02
2023-01-21T01:45:21.674Z,21.55
2023-01-21T01:45:33.805Z,22.67
2023-01-21T01:45:48.009Z,22.05
2023-01-21T01:45:59.965Z,20.45
2023-01-21T01:46:11.929Z,19.52
2023-01-21T01:46:26.384Z,22.60
2023-01-21T01:46:38.397Z,23.65
2023-01-21T01:46:50.871Z,22.85
2023-01-21T01:47:04.416Z,24.05
2023-01-21T01:47:16.455Z,22.60
2023-01-21T01:47:37.359Z,22.00
2023-01-21T01:47:59.906Z,23.38
2023-01-21T01:48:16.516Z,22.45
2023-01-21T01:48:32.267Z,22.83
2023-01-21T01:48:53.637Z,23.50
2023-01-21T01:49:08.750Z,21.98
2023-01-21T01:49:21.910Z,20.77
2023-01-21T01:49:34.307Z,21.70
2023-01-21T01:49:47.982Z,21.90
2023-01-21T01:50:01.633Z,22.05
2023-01-21T01:50:18.152Z,21.35
2023-01-21T01:50:38.041Z,21.08
2023-01-21T01:50:50.676Z,20.85
2023-01-21T01:51:07.538Z,21.73
2023-01-21T01:51:26.714Z,21.77
2023-01-21T01:51:47.969Z,19.88
2023-01-21T01:52:05.068Z,19.27
2023-01-21T01:52:19.844Z,20.35
2023-01-21T01:52:32.608Z,21.65
2023-01-21T01:52:46.125Z,22.02
2023-01-21T01:53:00.922Z,21.45
2023-01-21T01:53:15.611Z,22.52
2023-01-21T01:53:31.127Z,24.77
2023-01-21T01:53:46.737Z,23.20
2023-01-21T01:54:00.017Z,23.05
2023-01-21T01:54:17.037Z,23.98
2023-01-21T01:54:36.508Z,22.25
2023-01-21T01:54:53.402Z,20.92
2023-01-21T01:55:07.442Z,20.85
2023-01-21T01:55:19.982Z,20.80
2023-01-21T01:55:35.823Z,22.48
2023-01-21T01:55:49.123Z,25.55
2023-01-21T01:56:01.993Z,25.88
2023-01-21T01:56:15.909Z,24.35
2023-01-21T01:56:31.527Z,22.50
2023-01-21T01:56:47.943Z,21.30
2023-01-21T01:57:03.037Z,21.48
2023-01-21T01:57:18.168Z,21.00
2023-01-21T01:57:38.365Z,20.77
2023-01-21T01:57:53.512Z,21.25
2023-01-21T01:58:11.062Z,23.08
2023-01-21T01:58:23.200Z,24.08
2023-01-21T01:58:38.089Z,25.17
2023-01-21T01:58:50.317Z,24.58
2023-01-21T01:59:02.412Z,23.70
2023-01-21T01:59:14.409Z,22.65
2023-01-21T01:59:27.769Z,21.58
2023-01-21T01:59:40.869Z,20.83
2023-01-21T01:59:52.908Z,21.35
2023-01-21T02:00:07.620Z,20.70
2023-01-21T02:00:20.285Z,21.20
2023-01-21T02:00:32.299Z,23.25
2023-01-21T02:00:44.626Z,23.50
2023-01-21T02:00:57.472Z,23.65
2023-01-21T02:01:09.401Z,23.33
2023-01-21T02:01:22.183Z,23.88
2023-01-21T02:01:34.220Z,24.92
2023-01-21T02:01:46.488Z,24.83
2023-01-21T02:02:03.498Z,23.33
2023-01-21T02:02:18.002Z,24.27
2023-01-21T02:02:31.665Z,25.88
2023-01-21T02:03:04.495Z,23.85
2023-01-21T02:03:38.016Z,25.63
2023-01-21T02:03:58.405Z,23.13
2023-01-21T02:04:15.700Z,24.08
2023-01-21T02:04:31.717Z,24.75
2023-01-21T02:05:00.121Z,23.67
2023-01-21T02:05:12.036Z,22.63
2023-01-21T02:05:23.957Z,22.50
2023-01-21T02:05:37.240Z,22.00
2023-01-21T02:05:50.772Z,22.45
2023-01-21T02:06:02.920Z,21.75
2023-01-21T02:06:17.007Z,21.85
2023-01-21T02:06:29.131Z,23.52
2023-01-21T02:06:42.709Z,23.02
2023-01-21T02:06:56.890Z,24.05
2023-01-21T02:07:09.230Z,23.93
2023-01-21T02:07:23.617Z,22.70
2023-01-21T02:07:40.062Z,21.15
2023-01-21T02:07:55.135Z,22.42
2023-01-21T02:08:08.611Z,22.67
2023-01-21T02:08:21.954Z,24.05
2023-01-21T02:08:36.159Z,26.13
2023-01-21T02:08:48.591Z,26.27
2023-01-21T02:09:00.504Z,24.63
2023-01-21T02:09:12.541Z,23.55
2023-01-21T02:09:29.569Z,25.38
2023-01-21T02:09:41.566Z,26.42
2023-01-21T02:09:54.284Z,26.13
2023-01-21T02:10:12.046Z,24.40
2023-01-21T02:10:24.011Z,24.25
2023-01-21T02:10:36.540Z,24.08
2023-01-21T02:10:49.040Z,23.85
2023-01-21T02:11:02.553Z,22.38
2023-01-21T02:11:16.944Z,22.75
2023-01-21T02:11:28.859Z,22.85
2023-01-21T02:11:41.108Z,21.58
2023-01-21T02:11:53.230Z,22.15
2023-01-21T02:12:06.466Z,23.38
2023-01-21T02:12:22.041Z,23.02
2023-01-21T02:12:36.178Z,22.10
2023-01-21T02:12:48.203Z,22.70
2023-01-21T02:13:00.777Z,22.05
2023-01-21T02:13:12.799Z,22.65
2023-01-21T02:13:27.297Z,23.92
2023-01-21T02:13:42.231Z,25.08
2023-01-21T02:13:57.749Z,24.52
2023-01-21T02:14:09.857Z,24.05
2023-01-21T02:14:22.031Z,22.77
2023-01-21T02:14:42.634Z,21.90
2023-01-21T02:14:54.806Z,23.65
2023-01-21T02:15:07.924Z,25.92
2023-01-21T02:15:20.528Z,25.88
2023-01-21T02:15:56.619Z,26.33
2023-01-21T02:16:34.889Z,21.05
2023-01-21T02:17:17.498Z,24.58
2023-01-21T02:17:38.171Z,22.65
2023-01-21T02:18:25.327Z,23.52
2023-01-21T02:19:14.692Z,23.52
2023-01-21T02:19:29.196Z,22.92
2023-01-21T02:20:07.005Z,21.33
2023-01-21T02:20:40.421Z,22.35
2023-01-21T02:21:08.305Z,23.70
2023-01-21T02:21:40.143Z,23.83
2023-01-21T02:22:16.145Z,24.02
2023-01-21T02:22:55.812Z,22.08
2023-01-21T02:23:23.735Z,24.88
2023-01-21T02:24:02.711Z,20.83
2023-01-21T02:24:35.815Z,20.20
2023-01-21T02:25:32.434Z,22.13
2023-01-21T02:25:47.090Z,23.45
2023-01-21T02:26:25.258Z,21.63
2023-01-21T02:26:40.099Z,24.13
2023-01-21T02:27:08.374Z,24.20
2023-01-21T02:27:32.956Z,23.45
2023-01-21T02:28:02.902Z,24.33
2023-01-21T02:28:20.361Z,25.33
2023-01-21T02:28:56.804Z,24.92
2023-01-21T02:29:33.192Z,22.58
2023-01-21T02:29:45.104Z,22.90
2023-01-21T02:30:19.855Z,24.30
2023-01-21T02:30:53.572Z,25.05
2023-01-21T02:31:24.349Z,23.25
2023-01-21T02:31:54.878Z,23.65
2023-01-21T02:32:18.566Z,26.73
2023-01-21T02:32:49.394Z,24.60
2023-01-21T02:33:22.870Z,22.38
2023-01-21T02:33:54.053Z,23.92
2023-01-21T02:34:14.726Z,22.63
2023-01-21T02:34:29.271Z,24.33
2023-01-21T02:34:53.333Z,24.55
2023-01-21T02:35:14.218Z,23.77
2023-01-21T02:35:42.226Z,24.20
2023-01-21T02:36:04.989Z,23.50
2023-01-21T02:36:41.795Z,23.33
2023-01-21T02:37:17.286Z,23.98
2023-01-21T02:37:53.400Z,24.73
2023-01-21T02:38:17.555Z,24.48
2023-01-21T02:38:45.764Z,23.50
2023-01-21T02:39:18.555Z,23.95
2023-01-21T02:39:59.077Z,26.75
2023-01-21T02:40:21.297Z,25.90
2023-01-21T02:40:43.524Z,24.42
2023-01-21T02:41:30.781Z,22.80
2023-01-21T02:42:01.424Z,25.08
2023-01-21T02:42:25.114Z,24.90
2023-01-21T02:42:46.880Z,24.17
2023-01-21T02:43:12.362Z,24.98
2023-01-21T02:43:46.085Z,22.85
2023-01-21T02:44:32.667Z,24.20
2023-01-21T02:44:53.991Z,24.02
2023-01-21T02:45:11.568Z,25.90
2023-01-21T02:45:23.647Z,24.25
2023-01-21T02:45:46.655Z,24.30
2023-01-21T02:46:07.169Z,24.83
2023-01-21T02:46:37.373Z,25.55
2023-01-21T02:46:59.156Z,23.83
2023-01-21T02:47:37.498Z,25.73
2023-01-21T02:48:13.577Z,22.45
2023-01-21T02:48:58.146Z,24.92
2023-01-21T02:49:59.481Z,25.33
2023-01-21T02:50:26.330Z,26.40
2023-01-21T02:50:58.906Z,26.27
2023-01-21T02:51:13.175Z,23.15
2023-01-21T02:51:25.361Z,24.42
2023-01-21T02:51:37.275Z,24.75
2023-01-21T02:51:49.585Z,24.83
2023-01-21T02:52:01.575Z,24.33
2023-01-21T02:52:20.909Z,25.27
2023-01-21T02:52:33.049Z,24.45
2023-01-21T02:52:45.039Z,21.95
2023-01-21T02:52:58.487Z,23.40
2023-01-21T02:53:39.424Z,25.90
2023-01-21T02:53:51.419Z,24.83
2023-01-21T02:54:41.361Z,24.67
2023-01-21T02:54:56.097Z,24.27
2023-01-21T02:55:16.416Z,24.30
2023-01-21T02:55:38.347Z,25.40
2023-01-21T02:55:50.739Z,24.08
2023-01-21T02:56:05.345Z,24.48
2023-01-21T02:56:21.819Z,26.65
2023-01-21T02:56:33.761Z,26.35
2023-01-21T02:56:45.825Z,24.55
2023-01-21T02:56:57.815Z,23.63
2023-01-21T02:57:14.333Z,24.15
2023-01-21T02:57:41.947Z,24.92
2023-01-21T02:57:58.902Z,23.90
2023-01-21T02:58:14.851Z,25.55
2023-01-21T02:58:33.432Z,27.02
2023-01-21T02:58:49.959Z,26.40
2023-01-21T02:59:04.785Z,23.63
2023-01-21T02:59:16.767Z,21.23
2023-01-21T02:59:28.689Z,23.02
2023-01-21T02:59:46.799Z,25.35
2023-01-21T03:00:00.709Z,25.67
2023-01-21T03:00:26.569Z,26.33
2023-01-21T03:00:54.576Z,25.02
2023-01-21T03:01:11.827Z,27.02
2023-01-21T03:01:36.152Z,25.58
2023-01-21T03:02:08.297Z,23.02
2023-01-21T03:02:45.274Z,25.42
2023-01-21T03:03:12.190Z,25.83
2023-01-21T03:03:40.384Z,27.08
2023-01-21T03:04:14.776Z,24.55
2023-01-21T03:04:52.541Z,24.20
2023-01-21T03:05:13.063Z,23.08
2023-01-21T03:05:35.328Z,23.80
2023-01-21T03:05:57.713Z,24.63
2023-01-21T03:06:30.742Z,26.20
2023-01-21T03:07:22.467Z,24.00
2023-01-21T03:07:41.465Z,24.98
2023-01-21T03:08:02.544Z,26.35
2023-01-21T03:08:32.359Z,25.23
2023-01-21T03:08:55.881Z,26.83
2023-01-21T03:09:25.107Z,26.73
2023-01-21T03:09:37.332Z,22.85
2023-01-21T03:09:49.665Z,23.23
2023-01-21T03:10:13.845Z,23.63
2023-01-21T03:10:42.752Z,26.60
2023-01-21T03:10:54.593Z,26.77
2023-01-21T03:11:15.396Z,26.42
2023-01-21T03:11:28.247Z,28.17
2023-01-21T03:11:45.497Z,27.88
2023-01-21T03:12:09.038Z,25.38
2023-01-21T03:12:44.959Z,24.95
2023-01-21T03:13:05.377Z,26.30
2023-01-21T03:14:00.901Z,26.03
2023-01-21T03:14:37.385Z,24.20
2023-01-21T03:15:19.318Z,24.35
2023-01-21T03:16:04.008Z,26.40
2023-01-21T03:16:40.538Z,25.30
2023-01-21T03:17:18.439Z,26.60
2023-01-21T03:17:44.958Z,27.50
2023-01-21T03:18:18.578Z,26.08
2023-01-21T03:18:38.472Z,24.65
2023-01-21T03:18:56.322Z,24.90
2023-01-21T03:19:13.845Z,26.48
2023-01-21T03:19:38.676Z,26.90
2023-01-21T03:19:56.768Z,25.50
2023-01-21T03:20:12.969Z,24.88
2023-01-21T03:20:30.638Z,24.63
2023-01-21T03:20:47.560Z,26.98
2023-01-21T03:21:04.332Z,26.02
2023-01-21T03:21:23.828Z,27.02